sensor_id;sensor_type;location;lat;lon;timestamp;P1;durP1;ratioP1;P2;durP2;ratioP2
73980;SDS011;62348;51.412;5.436;2023-04-03T00:01:54;10.00;;;5.50;;
73980;SDS011;62348;51.412;5.436;2023-04-03T00:04:19;8.40;;;5.70;;
73980;SDS011;62348;51.412;5.436;2023-04-03T00:06:45;8.32;;;5.60;;
73980;SDS011;62348;51.412;5.436;2023-04-03T00:09:10;10.25;;;6.65;;
73980;SDS011;62348;51.412;5.436;2023-04-03T00:11:35;7.55;;;6.05;;
73980;SDS011;62348;51.412;5.436;2023-04-03T00:14:01;7.10;;;5.60;;
73980;SDS011;62348;51.412;5.436;2023-04-03T00:16:26;6.38;;;5.38;;
73980;SDS011;62348;51.412;5.436;2023-04-03T00:18:52;6.25;;;5.53;;
73980;SDS011;62348;51.412;5.436;2023-04-03T00:21:17;10.30;;;5.72;;
73980;SDS011;62348;51.412;5.436;2023-04-03T00:23:42;7.85;;;5.70;;
73980;SDS011;62348;51.412;5.436;2023-04-03T00:26:08;8.07;;;5.90;;
73980;SDS011;62348;51.412;5.436;2023-04-03T00:28:33;12.38;;;6.13;;
73980;SDS011;62348;51.412;5.436;2023-04-03T00:30:59;7.72;;;6.07;;
73980;SDS011;62348;51.412;5.436;2023-04-03T00:33:24;7.43;;;5.97;;
73980;SDS011;62348;51.412;5.436;2023-04-03T00:35:50;8.32;;;5.40;;
73980;SDS011;62348;51.412;5.436;2023-04-03T00:38:16;6.72;;;4.93;;
73980;SDS011;62348;51.412;5.436;2023-04-03T00:40:43;7.88;;;5.60;;
73980;SDS011;62348;51.412;5.436;2023-04-03T00:43:15;9.43;;;5.15;;
73980;SDS011;62348;51.412;5.436;2023-04-03T00:45:46;9.95;;;5.90;;
73980;SDS011;62348;51.412;5.436;2023-04-03T00:48:15;7.55;;;5.97;;
73980;SDS011;62348;51.412;5.436;2023-04-03T00:50:45;7.45;;;5.20;;
73980;SDS011;62348;51.412;5.436;2023-04-03T00:53:13;9.60;;;5.97;;
73980;SDS011;62348;51.412;5.436;2023-04-03T00:55:43;6.63;;;5.38;;
73980;SDS011;62348;51.412;5.436;2023-04-03T00:58:10;5.85;;;5.15;;
73980;SDS011;62348;51.412;5.436;2023-04-03T01:00:37;8.75;;;5.88;;
73980;SDS011;62348;51.412;5.436;2023-04-03T01:03:05;7.63;;;5.68;;
73980;SDS011;62348;51.412;5.436;2023-04-03T01:05:31;7.35;;;5.30;;
73980;SDS011;62348;51.412;5.436;2023-04-03T01:07:57;9.25;;;5.97;;
73980;SDS011;62348;51.412;5.436;2023-04-03T01:10:23;7.55;;;5.00;;
73980;SDS011;62348;51.412;5.436;2023-04-03T01:12:50;8.15;;;6.10;;
73980;SDS011;62348;51.412;5.436;2023-04-03T01:15:17;8.35;;;5.47;;
73980;SDS011;62348;51.412;5.436;2023-04-03T01:17:49;8.52;;;5.80;;
73980;SDS011;62348;51.412;5.436;2023-04-03T01:25:45;6.10;;;5.22;;
73980;SDS011;62348;51.412;5.436;2023-04-03T01:28:17;7.38;;;6.00;;
73980;SDS011;62348;51.412;5.436;2023-04-03T01:31:29;7.93;;;5.72;;
73980;SDS011;62348;51.412;5.436;2023-04-03T01:33:35;7.97;;;5.70;;
73980;SDS011;62348;51.412;5.436;2023-04-03T01:36:00;6.50;;;5.75;;
73980;SDS011;62348;51.412;5.436;2023-04-03T01:38:26;7.68;;;6.18;;
73980;SDS011;62348;51.412;5.436;2023-04-03T01:40:52;6.43;;;5.68;;
73980;SDS011;62348;51.412;5.436;2023-04-03T01:43:17;10.00;;;6.80;;
73980;SDS011;62348;51.412;5.436;2023-04-03T01:45:42;9.48;;;6.18;;
73980;SDS011;62348;51.412;5.436;2023-04-03T01:48:08;8.40;;;5.75;;
73980;SDS011;62348;51.412;5.436;2023-04-03T01:50:33;7.97;;;5.72;;
73980;SDS011;62348;51.412;5.436;2023-04-03T01:52:59;10.10;;;5.40;;
73980;SDS011;62348;51.412;5.436;2023-04-03T01:55:24;6.93;;;6.20;;
73980;SDS011;62348;51.412;5.436;2023-04-03T01:57:50;9.15;;;5.78;;
73980;SDS011;62348;51.412;5.436;2023-04-03T02:00:15;9.75;;;6.18;;
73980;SDS011;62348;51.412;5.436;2023-04-03T02:02:41;7.93;;;6.25;;
73980;SDS011;62348;51.412;5.436;2023-04-03T02:05:07;9.13;;;6.00;;
73980;SDS011;62348;51.412;5.436;2023-04-03T02:07:32;9.95;;;6.28;;
73980;SDS011;62348;51.412;5.436;2023-04-03T02:09:58;7.07;;;6.22;;
73980;SDS011;62348;51.412;5.436;2023-04-03T02:12:23;7.20;;;6.00;;
73980;SDS011;62348;51.412;5.436;2023-04-03T02:14:49;8.80;;;6.43;;
73980;SDS011;62348;51.412;5.436;2023-04-03T02:17:14;10.15;;;6.18;;
73980;SDS011;62348;51.412;5.436;2023-04-03T02:19:40;8.98;;;6.70;;
73980;SDS011;62348;51.412;5.436;2023-04-03T02:22:05;7.97;;;6.43;;
73980;SDS011;62348;51.412;5.436;2023-04-03T02:24:31;8.10;;;5.97;;
73980;SDS011;62348;51.412;5.436;2023-04-03T02:26:57;9.88;;;6.57;;
73980;SDS011;62348;51.412;5.436;2023-04-03T02:29:23;9.15;;;7.30;;
73980;SDS011;62348;51.412;5.436;2023-04-03T02:31:49;10.63;;;6.53;;
73980;SDS011;62348;51.412;5.436;2023-04-03T02:34:15;8.35;;;6.15;;
73980;SDS011;62348;51.412;5.436;2023-04-03T02:36:41;11.27;;;7.05;;
73980;SDS011;62348;51.412;5.436;2023-04-03T02:39:07;11.45;;;6.28;;
73980;SDS011;62348;51.412;5.436;2023-04-03T02:41:33;8.82;;;6.75;;
73980;SDS011;62348;51.412;5.436;2023-04-03T02:44:03;8.23;;;5.47;;
73980;SDS011;62348;51.412;5.436;2023-04-03T02:46:30;7.85;;;6.05;;
73980;SDS011;62348;51.412;5.436;2023-04-03T02:48:56;7.30;;;5.78;;
73980;SDS011;62348;51.412;5.436;2023-04-03T02:51:22;9.50;;;5.70;;
73980;SDS011;62348;51.412;5.436;2023-04-03T02:53:48;8.15;;;6.20;;
73980;SDS011;62348;51.412;5.436;2023-04-03T02:56:17;6.80;;;5.25;;
73980;SDS011;62348;51.412;5.436;2023-04-03T02:58:43;8.65;;;5.43;;
73980;SDS011;62348;51.412;5.436;2023-04-03T03:01:09;7.70;;;5.25;;
73980;SDS011;62348;51.412;5.436;2023-04-03T03:03:35;9.50;;;5.90;;
73980;SDS011;62348;51.412;5.436;2023-04-03T03:06:05;7.13;;;5.03;;
73980;SDS011;62348;51.412;5.436;2023-04-03T03:08:41;10.65;;;6.20;;
73980;SDS011;62348;51.412;5.436;2023-04-03T03:11:07;8.68;;;5.53;;
73980;SDS011;62348;51.412;5.436;2023-04-03T03:13:33;6.32;;;5.68;;
73980;SDS011;62348;51.412;5.436;2023-04-03T03:15:59;8.68;;;5.38;;
73980;SDS011;62348;51.412;5.436;2023-04-03T03:18:25;12.20;;;5.28;;
73980;SDS011;62348;51.412;5.436;2023-04-03T03:20:54;7.55;;;5.70;;
73980;SDS011;62348;51.412;5.436;2023-04-03T03:23:22;6.25;;;4.93;;
73980;SDS011;62348;51.412;5.436;2023-04-03T03:25:53;8.20;;;5.47;;
73980;SDS011;62348;51.412;5.436;2023-04-03T03:28:28;8.88;;;5.60;;
73980;SDS011;62348;51.412;5.436;2023-04-03T03:30:53;8.60;;;5.50;;
73980;SDS011;62348;51.412;5.436;2023-04-03T03:33:19;10.93;;;5.05;;
73980;SDS011;62348;51.412;5.436;2023-04-03T03:35:45;7.43;;;4.55;;
73980;SDS011;62348;51.412;5.436;2023-04-03T03:38:10;8.95;;;5.22;;
73980;SDS011;62348;51.412;5.436;2023-04-03T03:40:36;9.75;;;5.05;;
73980;SDS011;62348;51.412;5.436;2023-04-03T03:43:01;7.30;;;4.57;;
73980;SDS011;62348;51.412;5.436;2023-04-03T03:45:27;7.28;;;5.05;;
73980;SDS011;62348;51.412;5.436;2023-04-03T03:47:52;8.30;;;5.32;;
73980;SDS011;62348;51.412;5.436;2023-04-03T03:50:18;8.25;;;4.70;;
73980;SDS011;62348;51.412;5.436;2023-04-03T03:52:43;7.28;;;5.07;;
73980;SDS011;62348;51.412;5.436;2023-04-03T03:55:09;8.95;;;5.10;;
73980;SDS011;62348;51.412;5.436;2023-04-03T03:57:35;6.72;;;4.80;;
73980;SDS011;62348;51.412;5.436;2023-04-03T04:00:00;6.93;;;5.13;;
73980;SDS011;62348;51.412;5.436;2023-04-03T04:02:26;10.55;;;5.40;;
73980;SDS011;62348;51.412;5.436;2023-04-03T04:04:51;9.60;;;5.10;;
73980;SDS011;62348;51.412;5.436;2023-04-03T04:07:17;6.72;;;5.05;;
73980;SDS011;62348;51.412;5.436;2023-04-03T04:09:42;6.63;;;5.07;;
73980;SDS011;62348;51.412;5.436;2023-04-03T04:12:07;8.00;;;5.05;;
73980;SDS011;62348;51.412;5.436;2023-04-03T04:14:33;6.45;;;4.70;;
73980;SDS011;62348;51.412;5.436;2023-04-03T04:16:58;7.32;;;4.68;;
73980;SDS011;62348;51.412;5.436;2023-04-03T04:19:23;7.88;;;4.88;;
73980;SDS011;62348;51.412;5.436;2023-04-03T04:21:49;8.98;;;5.45;;
73980;SDS011;62348;51.412;5.436;2023-04-03T04:24:15;7.85;;;5.15;;
73980;SDS011;62348;51.412;5.436;2023-04-03T04:26:40;8.38;;;5.45;;
73980;SDS011;62348;51.412;5.436;2023-04-03T04:29:06;7.43;;;4.43;;
73980;SDS011;62348;51.412;5.436;2023-04-03T04:31:31;7.78;;;4.78;;
73980;SDS011;62348;51.412;5.436;2023-04-03T04:33:56;10.45;;;5.25;;
73980;SDS011;62348;51.412;5.436;2023-04-03T04:36:22;5.07;;;4.57;;
73980;SDS011;62348;51.412;5.436;2023-04-03T04:38:47;5.25;;;4.32;;
73980;SDS011;62348;51.412;5.436;2023-04-03T04:41:12;6.40;;;4.07;;
73980;SDS011;62348;51.412;5.436;2023-04-03T04:43:38;4.95;;;3.60;;
73980;SDS011;62348;51.412;5.436;2023-04-03T04:46:07;7.88;;;4.45;;
73980;SDS011;62348;51.412;5.436;2023-04-03T04:48:36;8.75;;;4.60;;
73980;SDS011;62348;51.412;5.436;2023-04-03T04:51:01;6.93;;;3.58;;
73980;SDS011;62348;51.412;5.436;2023-04-03T04:53:27;7.25;;;3.70;;
73980;SDS011;62348;51.412;5.436;2023-04-03T04:55:52;5.00;;;3.45;;
73980;SDS011;62348;51.412;5.436;2023-04-03T04:58:18;7.70;;;3.60;;
73980;SDS011;62348;51.412;5.436;2023-04-03T05:00:44;7.22;;;3.13;;
73980;SDS011;62348;51.412;5.436;2023-04-03T05:03:09;6.70;;;4.10;;
73980;SDS011;62348;51.412;5.436;2023-04-03T05:05:35;7.63;;;3.83;;
73980;SDS011;62348;51.412;5.436;2023-04-03T05:08:01;6.07;;;4.15;;
73980;SDS011;62348;51.412;5.436;2023-04-03T05:10:27;7.32;;;3.40;;
73980;SDS011;62348;51.412;5.436;2023-04-03T05:12:53;8.48;;;3.47;;
73980;SDS011;62348;51.412;5.436;2023-04-03T05:15:18;5.63;;;3.60;;
73980;SDS011;62348;51.412;5.436;2023-04-03T05:17:44;4.72;;;3.00;;
73980;SDS011;62348;51.412;5.436;2023-04-03T05:20:09;8.15;;;3.65;;
73980;SDS011;62348;51.412;5.436;2023-04-03T05:22:35;5.93;;;3.20;;
73980;SDS011;62348;51.412;5.436;2023-04-03T05:25:00;5.50;;;3.42;;
73980;SDS011;62348;51.412;5.436;2023-04-03T05:27:26;5.28;;;3.55;;
73980;SDS011;62348;51.412;5.436;2023-04-03T05:29:53;6.45;;;3.08;;
73980;SDS011;62348;51.412;5.436;2023-04-03T05:32:19;3.78;;;3.03;;
73980;SDS011;62348;51.412;5.436;2023-04-03T05:34:45;7.10;;;2.95;;
73980;SDS011;62348;51.412;5.436;2023-04-03T05:37:11;5.03;;;3.22;;
73980;SDS011;62348;51.412;5.436;2023-04-03T05:39:36;6.38;;;2.58;;
73980;SDS011;62348;51.412;5.436;2023-04-03T05:42:03;6.78;;;3.03;;
73980;SDS011;62348;51.412;5.436;2023-04-03T05:44:28;5.43;;;3.10;;
73980;SDS011;62348;51.412;5.436;2023-04-03T05:46:54;5.10;;;2.80;;
73980;SDS011;62348;51.412;5.436;2023-04-03T05:49:20;6.07;;;3.47;;
73980;SDS011;62348;51.412;5.436;2023-04-03T05:51:45;12.43;;;2.88;;
73980;SDS011;62348;51.412;5.436;2023-04-03T05:54:29;7.00;;;2.70;;
73980;SDS011;62348;51.412;5.436;2023-04-03T05:56:55;8.50;;;2.53;;
73980;SDS011;62348;51.412;5.436;2023-04-03T05:59:20;3.35;;;2.50;;
73980;SDS011;62348;51.412;5.436;2023-04-03T06:01:46;6.18;;;3.00;;
73980;SDS011;62348;51.412;5.436;2023-04-03T06:04:12;4.53;;;2.45;;
73980;SDS011;62348;51.412;5.436;2023-04-03T06:06:57;4.15;;;2.40;;
73980;SDS011;62348;51.412;5.436;2023-04-03T06:09:24;4.47;;;2.42;;
73980;SDS011;62348;51.412;5.436;2023-04-03T06:11:51;5.07;;;2.55;;
73980;SDS011;62348;51.412;5.436;2023-04-03T06:14:17;7.15;;;3.08;;
73980;SDS011;62348;51.412;5.436;2023-04-03T06:16:43;5.50;;;2.42;;
73980;SDS011;62348;51.412;5.436;2023-04-03T06:19:09;3.83;;;2.67;;
73980;SDS011;62348;51.412;5.436;2023-04-03T06:21:36;5.80;;;3.13;;
73980;SDS011;62348;51.412;5.436;2023-04-03T06:24:05;5.13;;;2.97;;
73980;SDS011;62348;51.412;5.436;2023-04-03T06:26:31;3.67;;;2.55;;
73980;SDS011;62348;51.412;5.436;2023-04-03T06:28:56;6.97;;;2.40;;
73980;SDS011;62348;51.412;5.436;2023-04-03T06:31:22;4.53;;;2.33;;
73980;SDS011;62348;51.412;5.436;2023-04-03T06:33:48;3.95;;;2.33;;
73980;SDS011;62348;51.412;5.436;2023-04-03T06:36:13;5.28;;;2.83;;
73980;SDS011;62348;51.412;5.436;2023-04-03T06:38:39;6.75;;;2.88;;
73980;SDS011;62348;51.412;5.436;2023-04-03T06:41:04;6.57;;;2.45;;
73980;SDS011;62348;51.412;5.436;2023-04-03T06:43:30;10.50;;;2.90;;
73980;SDS011;62348;51.412;5.436;2023-04-03T06:45:58;2.63;;;1.85;;
73980;SDS011;62348;51.412;5.436;2023-04-03T06:48:23;4.93;;;2.00;;
73980;SDS011;62348;51.412;5.436;2023-04-03T06:50:49;5.85;;;2.47;;
73980;SDS011;62348;51.412;5.436;2023-04-03T06:53:14;8.30;;;3.28;;
73980;SDS011;62348;51.412;5.436;2023-04-03T06:55:40;3.72;;;2.95;;
73980;SDS011;62348;51.412;5.436;2023-04-03T06:58:06;6.57;;;2.28;;
73980;SDS011;62348;51.412;5.436;2023-04-03T07:00:31;6.38;;;3.45;;
73980;SDS011;62348;51.412;5.436;2023-04-03T07:02:57;7.07;;;2.15;;
73980;SDS011;62348;51.412;5.436;2023-04-03T07:05:23;6.35;;;2.53;;
73980;SDS011;62348;51.412;5.436;2023-04-03T07:07:49;3.10;;;1.90;;
73980;SDS011;62348;51.412;5.436;2023-04-03T07:10:15;4.57;;;2.28;;
73980;SDS011;62348;51.412;5.436;2023-04-03T07:12:41;3.80;;;2.50;;
73980;SDS011;62348;51.412;5.436;2023-04-03T07:15:06;7.22;;;2.58;;
73980;SDS011;62348;51.412;5.436;2023-04-03T07:17:33;6.30;;;1.98;;
73980;SDS011;62348;51.412;5.436;2023-04-03T07:19:59;7.18;;;2.22;;
73980;SDS011;62348;51.412;5.436;2023-04-03T07:22:25;5.15;;;1.88;;
73980;SDS011;62348;51.412;5.436;2023-04-03T07:24:50;7.25;;;2.70;;
73980;SDS011;62348;51.412;5.436;2023-04-03T07:27:16;4.68;;;1.88;;
73980;SDS011;62348;51.412;5.436;2023-04-03T07:29:42;6.80;;;2.13;;
73980;SDS011;62348;51.412;5.436;2023-04-03T07:32:09;4.38;;;1.85;;
73980;SDS011;62348;51.412;5.436;2023-04-03T07:34:34;5.00;;;2.08;;
73980;SDS011;62348;51.412;5.436;2023-04-03T07:37:00;6.38;;;2.17;;
73980;SDS011;62348;51.412;5.436;2023-04-03T07:39:27;5.72;;;2.20;;
73980;SDS011;62348;51.412;5.436;2023-04-03T07:41:53;5.85;;;2.38;;
73980;SDS011;62348;51.412;5.436;2023-04-03T07:44:21;5.55;;;1.90;;
73980;SDS011;62348;51.412;5.436;2023-04-03T07:46:47;4.75;;;2.00;;
73980;SDS011;62348;51.412;5.436;2023-04-03T07:49:13;6.72;;;2.20;;
73980;SDS011;62348;51.412;5.436;2023-04-03T07:51:39;8.82;;;2.30;;
73980;SDS011;62348;51.412;5.436;2023-04-03T07:54:04;2.15;;;1.45;;
73980;SDS011;62348;51.412;5.436;2023-04-03T07:56:30;7.38;;;1.65;;
73980;SDS011;62348;51.412;5.436;2023-04-03T07:58:56;6.45;;;2.10;;
73980;SDS011;62348;51.412;5.436;2023-04-03T08:01:22;5.18;;;2.03;;
73980;SDS011;62348;51.412;5.436;2023-04-03T08:03:47;4.85;;;2.08;;
73980;SDS011;62348;51.412;5.436;2023-04-03T08:06:13;7.30;;;2.10;;
73980;SDS011;62348;51.412;5.436;2023-04-03T08:08:40;6.32;;;2.17;;
73980;SDS011;62348;51.412;5.436;2023-04-03T08:11:06;4.82;;;1.88;;
73980;SDS011;62348;51.412;5.436;2023-04-03T08:13:33;4.60;;;2.00;;
73980;SDS011;62348;51.412;5.436;2023-04-03T08:16:07;5.60;;;2.13;;
73980;SDS011;62348;51.412;5.436;2023-04-03T08:18:33;6.65;;;1.98;;
73980;SDS011;62348;51.412;5.436;2023-04-03T08:20:59;8.88;;;2.65;;
73980;SDS011;62348;51.412;5.436;2023-04-03T08:23:25;4.78;;;2.22;;
73980;SDS011;62348;51.412;5.436;2023-04-03T08:25:51;4.57;;;1.67;;
73980;SDS011;62348;51.412;5.436;2023-04-03T08:28:16;2.85;;;1.70;;
73980;SDS011;62348;51.412;5.436;2023-04-03T08:30:42;5.55;;;2.22;;
73980;SDS011;62348;51.412;5.436;2023-04-03T08:33:07;6.95;;;1.73;;
73980;SDS011;62348;51.412;5.436;2023-04-03T08:35:37;3.58;;;1.58;;
73980;SDS011;62348;51.412;5.436;2023-04-03T08:38:06;4.63;;;1.70;;
73980;SDS011;62348;51.412;5.436;2023-04-03T08:40:32;7.13;;;1.55;;
73980;SDS011;62348;51.412;5.436;2023-04-03T08:45:45;5.50;;;1.48;;
73980;SDS011;62348;51.412;5.436;2023-04-03T08:48:38;3.60;;;1.48;;
73980;SDS011;62348;51.412;5.436;2023-04-03T08:51:17;3.70;;;1.38;;
73980;SDS011;62348;51.412;5.436;2023-04-03T08:53:49;2.83;;;1.10;;
73980;SDS011;62348;51.412;5.436;2023-04-03T08:56:16;3.85;;;1.58;;
73980;SDS011;62348;51.412;5.436;2023-04-03T08:58:46;3.38;;;1.70;;
73980;SDS011;62348;51.412;5.436;2023-04-03T09:01:25;5.82;;;1.55;;
73980;SDS011;62348;51.412;5.436;2023-04-03T09:03:54;5.43;;;1.40;;
73980;SDS011;62348;51.412;5.436;2023-04-03T09:06:25;2.65;;;1.10;;
73980;SDS011;62348;51.412;5.436;2023-04-03T09:09:21;2.05;;;1.10;;
73980;SDS011;62348;51.412;5.436;2023-04-03T09:12:03;6.93;;;1.42;;
73980;SDS011;62348;51.412;5.436;2023-04-03T09:17:31;1.65;;;1.08;;
73980;SDS011;62348;51.412;5.436;2023-04-03T09:25:53;1.60;;;0.75;;
73980;SDS011;62348;51.412;5.436;2023-04-03T09:28:26;2.22;;;0.90;;
73980;SDS011;62348;51.412;5.436;2023-04-03T09:30:52;2.00;;;0.88;;
73980;SDS011;62348;51.412;5.436;2023-04-03T09:33:18;0.88;;;0.63;;
73980;SDS011;62348;51.412;5.436;2023-04-03T09:35:46;1.55;;;0.85;;
73980;SDS011;62348;51.412;5.436;2023-04-03T09:45:43;2.13;;;1.02;;
73980;SDS011;62348;51.412;5.436;2023-04-03T09:50:38;3.13;;;1.80;;
73980;SDS011;62348;51.412;5.436;2023-04-03T09:53:39;6.88;;;1.10;;
73980;SDS011;62348;51.412;5.436;2023-04-03T09:58:40;2.88;;;1.33;;
73980;SDS011;62348;51.412;5.436;2023-04-03T10:01:20;3.70;;;0.82;;
73980;SDS011;62348;51.412;5.436;2023-04-03T10:03:50;3.20;;;0.95;;
73980;SDS011;62348;51.412;5.436;2023-04-03T10:06:54;2.47;;;0.77;;
73980;SDS011;62348;51.412;5.436;2023-04-03T10:14:33;1.73;;;0.90;;
73980;SDS011;62348;51.412;5.436;2023-04-03T10:23:00;1.67;;;0.77;;
73980;SDS011;62348;51.412;5.436;2023-04-03T10:25:22;2.47;;;1.23;;
73980;SDS011;62348;51.412;5.436;2023-04-03T10:30:34;1.13;;;0.70;;
73980;SDS011;62348;51.412;5.436;2023-04-03T10:33:29;1.98;;;0.80;;
73980;SDS011;62348;51.412;5.436;2023-04-03T10:41:38;1.70;;;0.85;;
73980;SDS011;62348;51.412;5.436;2023-04-03T10:47:22;1.77;;;0.60;;
73980;SDS011;62348;51.412;5.436;2023-04-03T10:53:00;1.40;;;0.80;;
73980;SDS011;62348;51.412;5.436;2023-04-03T10:55:37;2.65;;;0.80;;
73980;SDS011;62348;51.412;5.436;2023-04-03T10:58:21;0.85;;;0.80;;
73980;SDS011;62348;51.412;5.436;2023-04-03T11:00:54;1.45;;;0.70;;
73980;SDS011;62348;51.412;5.436;2023-04-03T11:06:00;1.10;;;0.60;;
73980;SDS011;62348;51.412;5.436;2023-04-03T11:08:50;1.00;;;0.60;;
73980;SDS011;62348;51.412;5.436;2023-04-03T11:11:22;2.17;;;0.73;;
73980;SDS011;62348;51.412;5.436;2023-04-03T11:14:09;2.40;;;0.70;;
73980;SDS011;62348;51.412;5.436;2023-04-03T11:16:43;2.78;;;0.70;;
73980;SDS011;62348;51.412;5.436;2023-04-03T11:19:19;2.17;;;1.35;;
73980;SDS011;62348;51.412;5.436;2023-04-03T11:21:56;2.22;;;0.80;;
73980;SDS011;62348;51.412;5.436;2023-04-03T11:24:27;2.22;;;0.85;;
73980;SDS011;62348;51.412;5.436;2023-04-03T11:26:56;2.20;;;0.80;;
73980;SDS011;62348;51.412;5.436;2023-04-03T11:29:25;1.60;;;0.70;;
73980;SDS011;62348;51.412;5.436;2023-04-03T11:34:47;0.95;;;0.80;;
73980;SDS011;62348;51.412;5.436;2023-04-03T11:37:38;2.70;;;0.75;;
73980;SDS011;62348;51.412;5.436;2023-04-03T11:42:43;1.92;;;0.70;;
73980;SDS011;62348;51.412;5.436;2023-04-03T11:45:16;3.58;;;0.82;;
73980;SDS011;62348;51.412;5.436;2023-04-03T11:47:55;2.88;;;0.80;;
73980;SDS011;62348;51.412;5.436;2023-04-03T11:53:01;1.67;;;0.73;;
73980;SDS011;62348;51.412;5.436;2023-04-03T11:55:41;1.48;;;0.98;;
73980;SDS011;62348;51.412;5.436;2023-04-03T11:58:20;1.67;;;0.75;;
73980;SDS011;62348;51.412;5.436;2023-04-03T12:00:51;2.58;;;0.80;;
73980;SDS011;62348;51.412;5.436;2023-04-03T12:05:56;3.55;;;1.00;;
73980;SDS011;62348;51.412;5.436;2023-04-03T12:13:39;1.45;;;0.90;;
73980;SDS011;62348;51.412;5.436;2023-04-03T12:16:28;2.20;;;1.10;;
73980;SDS011;62348;51.412;5.436;2023-04-03T12:40:48;1.90;;;0.70;;
73980;SDS011;62348;51.412;5.436;2023-04-03T12:46:52;1.20;;;0.70;;
73980;SDS011;62348;51.412;5.436;2023-04-03T12:49:35;1.52;;;0.80;;
73980;SDS011;62348;51.412;5.436;2023-04-03T12:52:05;2.00;;;1.15;;
73980;SDS011;62348;51.412;5.436;2023-04-03T12:54:41;1.63;;;1.10;;
73980;SDS011;62348;51.412;5.436;2023-04-03T12:57:11;1.83;;;0.90;;
73980;SDS011;62348;51.412;5.436;2023-04-03T12:59:50;2.03;;;1.00;;
73980;SDS011;62348;51.412;5.436;2023-04-03T13:02:23;1.73;;;1.23;;
73980;SDS011;62348;51.412;5.436;2023-04-03T13:04:54;1.85;;;1.00;;
73980;SDS011;62348;51.412;5.436;2023-04-03T13:07:29;1.73;;;0.77;;
73980;SDS011;62348;51.412;5.436;2023-04-03T13:10:04;4.82;;;1.45;;
73980;SDS011;62348;51.412;5.436;2023-04-03T13:15:30;2.58;;;1.08;;
73980;SDS011;62348;51.412;5.436;2023-04-03T13:18:21;1.08;;;0.70;;
73980;SDS011;62348;51.412;5.436;2023-04-03T13:20:56;4.45;;;1.10;;
73980;SDS011;62348;51.412;5.436;2023-04-03T13:23:25;2.42;;;1.17;;
73980;SDS011;62348;51.412;5.436;2023-04-03T13:25:51;1.23;;;1.10;;
73980;SDS011;62348;51.412;5.436;2023-04-03T13:28:21;3.45;;;1.00;;
73980;SDS011;62348;51.412;5.436;2023-04-03T13:33:24;7.70;;;1.23;;
73980;SDS011;62348;51.412;5.436;2023-04-03T13:36:16;3.38;;;1.33;;
73980;SDS011;62348;51.412;5.436;2023-04-03T13:38:43;1.35;;;1.13;;
73980;SDS011;62348;51.412;5.436;2023-04-03T13:41:22;2.65;;;1.35;;
73980;SDS011;62348;51.412;5.436;2023-04-03T13:44:41;2.92;;;1.23;;
73980;SDS011;62348;51.412;5.436;2023-04-03T13:49:40;4.15;;;1.33;;
73980;SDS011;62348;51.412;5.436;2023-04-03T13:54:47;2.45;;;1.20;;
73980;SDS011;62348;51.412;5.436;2023-04-03T13:57:17;2.15;;;1.17;;
73980;SDS011;62348;51.412;5.436;2023-04-03T13:59:42;1.63;;;1.15;;
73980;SDS011;62348;51.412;5.436;2023-04-03T14:07:01;3.60;;;1.20;;
73980;SDS011;62348;51.412;5.436;2023-04-03T14:09:27;2.50;;;1.25;;
73980;SDS011;62348;51.412;5.436;2023-04-03T14:11:54;2.78;;;1.35;;
73980;SDS011;62348;51.412;5.436;2023-04-03T14:14:24;4.22;;;1.58;;
73980;SDS011;62348;51.412;5.436;2023-04-03T14:16:53;2.08;;;1.27;;
73980;SDS011;62348;51.412;5.436;2023-04-03T14:19:28;4.65;;;1.30;;
73980;SDS011;62348;51.412;5.436;2023-04-03T14:21:57;3.20;;;1.58;;
73980;SDS011;62348;51.412;5.436;2023-04-03T14:24:25;4.47;;;1.80;;
73980;SDS011;62348;51.412;5.436;2023-04-03T14:26:52;3.38;;;1.65;;
73980;SDS011;62348;51.412;5.436;2023-04-03T14:29:19;3.22;;;1.83;;
73980;SDS011;62348;51.412;5.436;2023-04-03T14:31:46;2.50;;;1.15;;
73980;SDS011;62348;51.412;5.436;2023-04-03T14:34:13;3.08;;;1.40;;
73980;SDS011;62348;51.412;5.436;2023-04-03T14:36:42;1.75;;;1.45;;
73980;SDS011;62348;51.412;5.436;2023-04-03T14:39:18;5.20;;;2.15;;
73980;SDS011;62348;51.412;5.436;2023-04-03T14:41:43;5.95;;;1.67;;
73980;SDS011;62348;51.412;5.436;2023-04-03T14:44:10;4.32;;;1.58;;
73980;SDS011;62348;51.412;5.436;2023-04-03T14:46:36;3.95;;;1.42;;
73980;SDS011;62348;51.412;5.436;2023-04-03T14:49:14;1.67;;;1.10;;
73980;SDS011;62348;51.412;5.436;2023-04-03T14:51:51;3.28;;;1.60;;
73980;SDS011;62348;51.412;5.436;2023-04-03T14:54:18;4.90;;;1.38;;
73980;SDS011;62348;51.412;5.436;2023-04-03T14:56:50;4.43;;;1.40;;
73980;SDS011;62348;51.412;5.436;2023-04-03T14:59:16;2.92;;;1.38;;
73980;SDS011;62348;51.412;5.436;2023-04-03T15:01:42;2.20;;;1.23;;
73980;SDS011;62348;51.412;5.436;2023-04-03T15:04:15;5.85;;;1.35;;
73980;SDS011;62348;51.412;5.436;2023-04-03T15:06:42;3.25;;;1.30;;
73980;SDS011;62348;51.412;5.436;2023-04-03T15:09:21;3.58;;;1.42;;
73980;SDS011;62348;51.412;5.436;2023-04-03T15:11:52;4.65;;;2.47;;
73980;SDS011;62348;51.412;5.436;2023-04-03T15:14:21;2.85;;;1.25;;
73980;SDS011;62348;51.412;5.436;2023-04-03T15:16:47;2.72;;;1.30;;
73980;SDS011;62348;51.412;5.436;2023-04-03T15:19:13;2.47;;;1.30;;
73980;SDS011;62348;51.412;5.436;2023-04-03T15:21:39;3.25;;;1.40;;
73980;SDS011;62348;51.412;5.436;2023-04-03T15:24:05;3.95;;;1.58;;
73980;SDS011;62348;51.412;5.436;2023-04-03T15:26:31;3.40;;;1.70;;
73980;SDS011;62348;51.412;5.436;2023-04-03T15:28:57;3.38;;;1.60;;
73980;SDS011;62348;51.412;5.436;2023-04-03T15:31:23;3.85;;;1.83;;
73980;SDS011;62348;51.412;5.436;2023-04-03T15:33:48;3.58;;;1.45;;
73980;SDS011;62348;51.412;5.436;2023-04-03T15:36:14;2.47;;;1.30;;
73980;SDS011;62348;51.412;5.436;2023-04-03T15:38:39;5.95;;;1.98;;
73980;SDS011;62348;51.412;5.436;2023-04-03T15:41:04;3.00;;;1.45;;
73980;SDS011;62348;51.412;5.436;2023-04-03T15:43:30;5.50;;;1.80;;
73980;SDS011;62348;51.412;5.436;2023-04-03T15:45:56;3.03;;;1.98;;
73980;SDS011;62348;51.412;5.436;2023-04-03T15:48:24;3.83;;;1.50;;
73980;SDS011;62348;51.412;5.436;2023-04-03T15:50:50;2.42;;;1.55;;
73980;SDS011;62348;51.412;5.436;2023-04-03T15:53:15;2.88;;;1.52;;
73980;SDS011;62348;51.412;5.436;2023-04-03T15:55:41;4.28;;;2.00;;
73980;SDS011;62348;51.412;5.436;2023-04-03T15:58:06;3.25;;;1.58;;
73980;SDS011;62348;51.412;5.436;2023-04-03T16:00:32;3.22;;;1.75;;
73980;SDS011;62348;51.412;5.436;2023-04-03T16:03:05;2.83;;;1.40;;
73980;SDS011;62348;51.412;5.436;2023-04-03T16:05:35;2.85;;;1.52;;
73980;SDS011;62348;51.412;5.436;2023-04-03T16:08:02;2.83;;;1.38;;
73980;SDS011;62348;51.412;5.436;2023-04-03T16:10:28;2.10;;;1.40;;
73980;SDS011;62348;51.412;5.436;2023-04-03T16:12:53;2.85;;;1.20;;
73980;SDS011;62348;51.412;5.436;2023-04-03T16:15:22;2.63;;;1.30;;
73980;SDS011;62348;51.412;5.436;2023-04-03T16:17:49;2.90;;;1.83;;
73980;SDS011;62348;51.412;5.436;2023-04-03T16:20:16;3.15;;;1.80;;
73980;SDS011;62348;51.412;5.436;2023-04-03T16:22:42;3.05;;;1.10;;
73980;SDS011;62348;51.412;5.436;2023-04-03T16:25:08;2.97;;;1.42;;
73980;SDS011;62348;51.412;5.436;2023-04-03T16:27:34;4.35;;;1.70;;
73980;SDS011;62348;51.412;5.436;2023-04-03T16:29:59;5.05;;;1.52;;
73980;SDS011;62348;51.412;5.436;2023-04-03T16:32:26;2.38;;;1.58;;
73980;SDS011;62348;51.412;5.436;2023-04-03T16:34:54;4.65;;;1.42;;
73980;SDS011;62348;51.412;5.436;2023-04-03T16:37:20;4.30;;;1.50;;
73980;SDS011;62348;51.412;5.436;2023-04-03T16:39:45;3.03;;;1.85;;
73980;SDS011;62348;51.412;5.436;2023-04-03T16:42:11;2.35;;;1.10;;
73980;SDS011;62348;51.412;5.436;2023-04-03T16:44:36;2.78;;;1.40;;
73980;SDS011;62348;51.412;5.436;2023-04-03T16:47:02;6.25;;;1.23;;
73980;SDS011;62348;51.412;5.436;2023-04-03T16:49:28;3.20;;;1.50;;
73980;SDS011;62348;51.412;5.436;2023-04-03T16:51:57;2.30;;;1.60;;